Terminal Aerodrome Forecast
Issued by NWS Upton, NY

Home | Current Version | Previous Version | Text Only | Print | Product List | Glossary On
Versions: 1 2 3 4 5 6 7 8 9 10 11 12 13 14 15 16 17 18 19 20 21 22 23 24 25 26 27 28 29 30 31 32 33 34 35
357
FTUS41 KOKX 271547 AAD
TAFLGA
TAF AMD
KLGA 271547Z 2716/2812 16008KT P6SM SCT010 BKN025
     FM272200 13009KT P6SM SCT008 BKN015
     FM280000 13009KT 4SM BR BKN008 OVC015
     FM280200 14008KT 1 1/2SM -DZ BR OVC008
     FM280400 15007KT 1SM -DZ BR OVC005
     FM280600 VRB04KT 1/2SM -DZ FG OVC008=

USA.gov is the U.S. government's official web portal to all federal, state and local government web resources and services.